Live aus Altenrhein
LIVE
LSZR 201950Z AUTO 12004KT 9999 NSC 10/07 Q1023
Zeitraffer heute
2017-09-20 00:14:52
LSZR 192150Z AUTO 11003KT 070V150 9999 FEW021 BKN026 09/08 Q1021
Zeitraffer gestern
2017-09-19 00:14:56
LSZR 182150Z AUTO 10002KT 9999 NCD 09/07 Q1018
Zeitraffer vor 3 Tagen
2017-09-17 00:14:54
LSZR 162150Z AUTO VRB02KT 9999 OVC060 10/09 Q1014